Time;durP1;ratioP1;P1;durP2;ratioP2;P2;SDS_P1;SDS_P2;PMS_P1;PMS_P2;Temp;Humidity;BMP_temperature;BMP_pressure;BME280_temperature;BME280_humidity;BME280_pressure;Samples;Min_cycle;Max_cycle;Signal;HPM_P1;HPM_P2
2022/06/05 00:00:32;;;;;;;7.35;5.55;;;17.60;99.90;;;;;;5112427;28;20673;-52
2022/06/05 00:03:13;;;;;;;5.63;5.13;;;17.60;99.90;;;;;;5112932;28;20218;-51
2022/06/05 00:05:51;;;;;;;5.38;4.85;;;17.60;99.90;;;;;;5112705;28;20207;-51
2022/06/05 00:08:29;;;;;;;6.07;4.93;;;17.50;99.90;;;;;;5112602;28;20254;-51
2022/06/05 00:10:58;;;;;;;5.78;5.18;;;17.50;99.90;;;;;;5113044;28;20235;-52
2022/06/05 00:13:33;;;;;;;5.78;5.13;;;17.50;99.90;;;;;;5112247;28;20292;-52
2022/06/05 00:16:02;;;;;;;5.70;5.20;;;17.50;99.90;;;;;;5112558;28;20256;-51
2022/06/05 00:18:33;;;;;;;5.88;5.38;;;17.50;99.90;;;;;;5104786;28;20258;-51
2022/06/05 00:21:01;;;;;;;5.55;5.07;;;17.50;99.90;;;;;;5110926;28;20250;-51
2022/06/05 00:23:30;;;;;;;6.00;5.50;;;17.40;99.90;;;;;;5097065;28;20251;-51
2022/06/05 00:26:06;;;;;;;8.07;5.40;;;17.40;99.90;;;;;;5112377;28;20203;-51
2022/06/05 00:28:39;;;;;;;5.50;5.05;;;17.40;99.90;;;;;;5110215;28;20254;-51
2022/06/05 00:31:20;;;;;;;5.95;5.45;;;17.40;99.90;;;;;;5111565;28;20295;-51
2022/06/05 00:33:48;;;;;;;5.82;5.32;;;17.30;99.90;;;;;;5111538;28;20268;-51
2022/06/05 00:36:36;;;;;;;6.47;5.80;;;17.20;99.90;;;;;;5104617;28;20216;-51
2022/06/05 00:39:10;;;;;;;6.35;5.70;;;17.20;99.90;;;;;;5111247;28;20203;-51
2022/06/05 00:41:53;;;;;;;6.10;5.50;;;17.10;99.90;;;;;;5079191;28;20231;-51
2022/06/05 00:44:25;;;;;;;6.03;5.40;;;17.10;99.90;;;;;;5091735;28;20228;-51
2022/06/05 00:46:55;;;;;;;6.47;5.82;;;17.10;99.90;;;;;;5091141;28;20208;-51
2022/06/05 00:49:33;;;;;;;7.93;5.63;;;17.10;99.90;;;;;;5088433;28;20207;-51
2022/06/05 00:52:03;;;;;;;6.20;5.70;;;17.10;99.90;;;;;;5073134;28;20609;-51
2022/06/05 00:54:31;;;;;;;6.18;5.57;;;17.10;99.90;;;;;;5074758;28;20279;-52
2022/06/05 00:56:59;;;;;;;7.35;5.90;;;17.10;99.90;;;;;;5089847;28;20235;-52
2022/06/05 00:59:28;;;;;;;6.90;5.55;;;17.10;99.90;;;;;;5077206;28;20254;-51
2022/06/05 01:01:58;;;;;;;5.93;5.43;;;17.10;99.90;;;;;;5090562;28;20673;-52
2022/06/05 01:04:27;;;;;;;6.85;5.75;;;17.00;99.90;;;;;;5091278;28;20232;-51
2022/06/05 01:06:56;;;;;;;6.32;5.82;;;17.00;99.90;;;;;;5081794;28;20263;-52
2022/06/05 01:09:25;;;;;;;5.93;5.30;;;17.00;99.90;;;;;;5086104;28;20732;-52
2022/06/05 01:12:03;;;;;;;6.13;5.53;;;17.00;99.90;;;;;;5090834;28;20257;-52
2022/06/05 01:14:46;;;;;;;6.18;5.53;;;16.90;99.90;;;;;;5090754;28;20231;-52
2022/06/05 01:17:22;;;;;;;6.10;5.50;;;16.80;99.90;;;;;;5090958;28;20299;-51
2022/06/05 01:20:01;;;;;;;6.10;5.50;;;16.70;99.90;;;;;;5090845;28;20212;-51
2022/06/05 01:23:01;;;;;;;6.30;5.65;;;16.70;99.90;;;;;;5091063;28;20243;-52
2022/06/05 01:25:45;;;;;;;6.13;5.50;;;16.60;99.90;;;;;;5091287;28;20247;-51
2022/06/05 01:28:16;;;;;;;6.28;5.70;;;16.60;99.90;;;;;;5091728;28;20273;-51
2022/06/05 01:30:50;;;;;;;6.50;5.90;;;16.60;99.90;;;;;;5091395;28;20258;-51
2022/06/05 01:33:23;;;;;;;8.10;5.18;;;16.50;99.90;;;;;;5089999;28;20200;-51
2022/06/05 01:36:00;;;;;;;7.15;6.03;;;16.50;99.90;;;;;;5091025;28;20262;-51
2022/06/05 01:38:36;;;;;;;6.95;5.57;;;16.50;99.90;;;;;;5090691;28;20281;-51
2022/06/05 01:41:15;;;;;;;6.30;5.70;;;16.50;99.90;;;;;;5090947;28;20239;-50
2022/06/05 01:43:48;;;;;;;6.25;5.60;;;16.50;99.90;;;;;;5090569;28;20277;-52
2022/06/05 01:46:21;;;;;;;6.70;5.72;;;16.40;99.90;;;;;;5090969;28;20240;-51
2022/06/05 01:48:56;;;;;;;7.82;6.03;;;16.40;99.90;;;;;;5090616;28;20590;-51
2022/06/05 01:51:30;;;;;;;6.85;5.80;;;16.40;99.90;;;;;;5090734;28;20741;-52
2022/06/05 01:54:04;;;;;;;6.47;5.85;;;16.30;99.90;;;;;;5089634;28;20216;-52
2022/06/05 01:56:37;;;;;;;6.80;6.22;;;16.30;99.90;;;;;;5091050;28;20204;-51
2022/06/05 01:59:09;;;;;;;6.65;5.82;;;16.20;99.90;;;;;;5076056;28;20807;-51
2022/06/05 02:01:40;;;;;;;8.18;6.35;;;16.30;99.90;;;;;;5090034;28;20244;-51
2022/06/05 02:04:14;;;;;;;6.75;5.95;;;16.20;99.90;;;;;;5090181;28;20588;-51
2022/06/05 02:06:47;;;;;;;7.47;6.32;;;16.20;99.90;;;;;;5089924;28;20228;-51
2022/06/05 02:09:19;;;;;;;8.38;6.70;;;16.10;99.90;;;;;;5090330;28;20280;-51
2022/06/05 02:11:50;;;;;;;7.20;6.38;;;16.10;99.90;;;;;;5089562;28;20204;-52
2022/06/05 02:14:18;;;;;;;7.43;6.72;;;16.00;99.90;;;;;;5089963;28;20220;-52
2022/06/05 02:16:46;;;;;;;6.97;6.22;;;16.00;99.90;;;;;;5089963;28;20208;-52
2022/06/05 02:19:18;;;;;;;7.72;6.97;;;16.00;99.90;;;;;;5089745;28;20239;-51
2022/06/05 02:21:46;;;;;;;8.00;7.20;;;15.90;99.90;;;;;;5089849;28;20262;-51
2022/06/05 02:24:15;;;;;;;7.63;6.88;;;15.80;99.90;;;;;;5089676;28;20777;-51
2022/06/05 02:26:43;;;;;;;8.20;7.40;;;15.70;99.90;;;;;;5088777;28;20273;-52
2022/06/05 02:29:16;;;;;;;7.90;7.10;;;15.60;99.90;;;;;;5089827;28;20783;-52
2022/06/05 02:32:00;;;;;;;8.73;7.40;;;15.60;99.90;;;;;;5089361;28;20224;-52
2022/06/05 02:34:37;;;;;;;8.15;7.35;;;15.60;99.90;;;;;;5089651;28;20228;-52
2022/06/05 02:37:15;;;;;;;7.07;6.47;;;15.50;99.90;;;;;;5077028;28;20396;-52
2022/06/05 02:39:53;;;;;;;7.20;6.60;;;15.50;99.90;;;;;;5089596;28;20203;-52
2022/06/05 02:42:28;;;;;;;7.68;6.82;;;15.40;99.90;;;;;;5089429;28;20231;-51
2022/06/05 02:45:06;;;;;;;8.30;7.43;;;15.40;99.90;;;;;;5089259;28;20739;-52
2022/06/05 02:47:43;;;;;;;7.10;6.28;;;15.40;99.90;;;;;;5089170;28;20196;-52
2022/06/05 02:50:18;;;;;;;7.72;6.93;;;15.40;99.90;;;;;;5089619;28;20252;-51
2022/06/05 02:52:47;;;;;;;7.55;6.65;;;15.40;99.90;;;;;;5089051;28;20219;-51
2022/06/05 02:55:18;;;;;;;8.88;7.97;;;15.40;99.90;;;;;;5089705;28;20242;-50
2022/06/05 02:57:46;;;;;;;8.85;7.90;;;15.40;99.90;;;;;;5084281;28;20209;-51
2022/06/05 03:00:18;;;;;;;8.80;8.02;;;15.40;99.90;;;;;;5081489;28;20257;-51
2022/06/05 03:05:32;;;;;;;9.40;8.60;;;15.50;99.90;;;;;;5089629;28;20242;-52
2022/06/05 03:08:00;;;;;;;9.60;8.63;;;15.50;99.90;;;;;;5089265;28;20204;-51
2022/06/05 03:10:28;;;;;;;8.95;8.05;;;15.50;99.90;;;;;;5089824;28;20311;-51
2022/06/05 03:12:56;;;;;;;9.30;8.35;;;15.50;99.90;;;;;;5089054;28;20208;-51
2022/06/05 03:15:26;;;;;;;9.15;8.00;;;15.60;99.90;;;;;;5089838;28;20264;-51
2022/06/05 03:17:54;;;;;;;9.13;8.30;;;15.60;99.90;;;;;;5089314;28;20281;-51
2022/06/05 03:20:23;;;;;;;8.65;7.95;;;15.60;99.90;;;;;;5089482;28;20200;-52
2022/06/05 03:22:52;;;;;;;8.73;8.02;;;15.70;99.90;;;;;;5088495;28;20742;-50
2022/06/05 03:25:24;;;;;;;9.32;8.43;;;15.70;99.90;;;;;;5088994;28;20238;-52
2022/06/05 03:27:53;;;;;;;10.95;9.95;;;15.80;99.90;;;;;;5087840;28;20242;-50
2022/06/05 03:30:21;;;;;;;8.85;8.05;;;15.80;99.90;;;;;;5088716;28;20256;-51
2022/06/05 03:32:51;;;;;;;9.95;9.05;;;16.00;99.90;;;;;;5087897;28;20212;-51
2022/06/05 03:35:19;;;;;;;9.27;8.30;;;16.00;99.90;;;;;;5088423;28;20224;-51
2022/06/05 03:37:47;;;;;;;9.30;8.50;;;16.10;99.90;;;;;;5088359;28;20269;-51
2022/06/05 03:40:17;;;;;;;8.57;7.68;;;16.10;99.90;;;;;;5088737;28;20739;-51
2022/06/05 03:42:47;;;;;;;8.15;7.45;;;16.20;99.90;;;;;;5085676;28;20205;-51
2022/06/05 03:45:17;;;;;;;8.07;7.38;;;16.30;99.90;;;;;;5088112;28;20645;-51
2022/06/05 03:47:45;;;;;;;8.27;7.32;;;16.40;99.90;;;;;;5088234;28;20200;-52
2022/06/05 03:50:16;;;;;;;8.13;7.30;;;16.50;99.90;;;;;;5088970;28;20225;-52
2022/06/05 03:52:44;;;;;;;8.32;7.50;;;16.60;99.90;;;;;;5087571;28;20277;-51
2022/06/05 03:55:17;;;;;;;8.38;7.57;;;16.60;99.90;;;;;;5088583;28;20220;-51
2022/06/05 03:57:45;;;;;;;8.00;7.20;;;16.70;99.90;;;;;;5072336;28;20288;-50
2022/06/05 04:00:15;;;;;;;8.82;7.90;;;16.70;99.90;;;;;;5069206;28;20235;-51
2022/06/05 04:02:43;;;;;;;8.57;7.60;;;16.70;99.90;;;;;;5073814;28;20282;-50
2022/06/05 04:05:16;;;;;;;8.15;7.35;;;16.80;99.90;;;;;;5081869;28;20315;-52
2022/06/05 04:07:44;;;;;;;8.07;7.38;;;16.90;99.90;;;;;;5067543;28;20236;-51
2022/06/05 04:10:15;;;;;;;7.90;7.15;;;16.80;99.90;;;;;;5068838;28;20256;-52
2022/06/05 04:12:44;;;;;;;8.10;7.40;;;17.00;99.90;;;;;;5067400;28;20288;-51
2022/06/05 04:15:12;;;;;;;9.20;8.20;;;17.00;99.90;;;;;;5076082;28;20229;-51
2022/06/05 04:17:40;;;;;;;9.05;8.18;;;17.10;99.90;;;;;;5091670;28;20250;-51
2022/06/05 04:20:10;;;;;;;8.57;7.88;;;17.10;99.90;;;;;;5092661;28;20208;-51
2022/06/05 04:22:41;;;;;;;8.50;7.70;;;17.10;99.90;;;;;;5091116;28;20625;-51
2022/06/05 04:25:13;;;;;;;10.23;8.20;;;17.10;99.90;;;;;;5099393;28;20277;-51
2022/06/05 04:27:42;;;;;;;8.95;8.05;;;17.30;99.90;;;;;;5092856;28;20204;-50
2022/06/05 04:30:10;;;;;;;9.30;8.43;;;17.20;99.90;;;;;;5091585;28;20252;-51
2022/06/05 04:32:38;;;;;;;10.20;7.97;;;17.10;99.90;;;;;;5081447;28;20236;-50
2022/06/05 04:35:08;;;;;;;9.10;8.30;;;17.30;99.90;;;;;;5080019;28;20252;-51
2022/06/05 04:37:36;;;;;;;9.90;8.88;;;17.30;99.90;;;;;;5074028;28;20258;-51
2022/06/05 04:40:07;;;;;;;9.45;8.45;;;17.30;99.90;;;;;;5072631;28;20219;-51
2022/06/05 04:42:36;;;;;;;13.40;8.65;;;17.30;99.90;;;;;;5070660;28;20288;-51
2022/06/05 04:45:05;;;;;;;11.35;7.97;;;17.30;99.90;;;;;;5078541;28;20228;-51
2022/06/05 04:47:33;;;;;;;9.57;8.68;;;17.30;99.90;;;;;;5089154;28;20345;-51
2022/06/05 04:50:02;;;;;;;9.32;8.38;;;17.30;99.90;;;;;;5085596;28;20764;-51
2022/06/05 04:52:30;;;;;;;8.65;7.85;;;17.30;99.90;;;;;;5088517;28;20208;-55
2022/06/05 04:54:58;;;;;;;8.35;7.55;;;17.40;99.90;;;;;;5096151;28;20858;-51
2022/06/05 04:57:28;;;;;;;9.93;7.95;;;17.50;99.90;;;;;;5096232;28;20205;-51
2022/06/05 04:59:56;;;;;;;8.85;8.05;;;17.60;99.90;;;;;;5085050;28;20264;-52
2022/06/05 05:02:24;;;;;;;9.10;8.30;;;17.60;99.90;;;;;;5089933;28;20307;-51
2022/06/05 05:04:52;;;;;;;9.02;8.13;;;17.70;99.90;;;;;;5090927;28;20235;-51
2022/06/05 05:07:20;;;;;;;10.13;7.68;;;17.80;99.90;;;;;;5090989;28;20240;-51
2022/06/05 05:09:48;;;;;;;9.05;8.10;;;18.10;99.90;;;;;;5090734;28;20999;-52
2022/06/05 05:12:17;;;;;;;8.50;7.72;;;18.20;99.90;;;;;;5090769;28;20212;-51
2022/06/05 05:14:47;;;;;;;9.13;7.90;;;18.40;99.90;;;;;;5081990;28;20876;-51
2022/06/05 05:17:15;;;;;;;8.18;7.50;;;18.60;99.90;;;;;;5086885;28;20209;-51
2022/06/05 05:19:43;;;;;;;9.32;8.30;;;18.60;99.90;;;;;;5089836;28;20209;-51
2022/06/05 05:22:11;;;;;;;8.23;7.50;;;18.80;99.90;;;;;;5087001;28;20760;-51
2022/06/05 05:24:40;;;;;;;8.07;7.35;;;19.10;99.90;;;;;;5084986;28;20240;-51
2022/06/05 05:27:08;;;;;;;8.40;7.55;;;19.20;99.90;;;;;;5088342;28;20200;-51
2022/06/05 05:29:38;;;;;;;9.18;7.80;;;19.30;99.90;;;;;;5096860;28;20203;-51
2022/06/05 05:32:10;;;;;;;8.23;7.47;;;19.40;99.90;;;;;;5089180;28;20204;-51
2022/06/05 05:34:38;;;;;;;8.10;7.30;;;19.60;99.90;;;;;;5090481;28;20220;-52
2022/06/05 05:37:07;;;;;;;8.50;7.72;;;19.60;99.90;;;;;;5089247;28;20332;-52
2022/06/05 05:42:20;;;;;;;9.35;7.65;;;19.70;99.90;;;;;;5079997;28;20207;-51
2022/06/05 05:44:51;;;;;;;8.20;7.50;;;19.80;99.90;;;;;;5080680;28;20302;-51
2022/06/05 05:47:23;;;;;;;7.82;7.13;;;19.80;99.90;;;;;;5088051;28;20678;-50
2022/06/05 05:49:53;;;;;;;8.63;7.93;;;19.90;99.90;;;;;;5086541;28;20232;-52
2022/06/05 05:52:21;;;;;;;7.72;6.95;;;20.10;99.90;;;;;;5088125;28;20204;-52
2022/06/05 05:54:50;;;;;;;8.25;7.45;;;20.30;99.90;;;;;;5088631;28;20228;-52
2022/06/05 05:57:19;;;;;;;8.50;7.47;;;20.50;99.90;;;;;;5088163;28;20232;-52
2022/06/05 05:59:48;;;;;;;7.93;7.22;;;20.70;99.90;;;;;;5096403;28;20218;-52
2022/06/05 06:02:19;;;;;;;7.97;7.22;;;20.70;99.90;;;;;;5094701;28;20231;-52
2022/06/05 06:04:50;;;;;;;9.15;7.30;;;20.70;99.90;;;;;;5093780;28;20311;-52
2022/06/05 06:07:19;;;;;;;8.18;7.55;;;20.60;99.90;;;;;;5097746;28;20232;-52
2022/06/05 06:09:48;;;;;;;8.35;7.65;;;20.40;99.90;;;;;;5082481;28;20211;-52
2022/06/05 06:12:23;;;;;;;8.18;7.47;;;20.30;99.90;;;;;;5081269;28;20296;-52
2022/06/05 06:14:51;;;;;;;7.70;7.00;;;20.20;99.90;;;;;;5088163;28;20675;-52
2022/06/05 06:17:20;;;;;;;8.80;7.20;;;20.10;99.90;;;;;;5088401;28;20212;-52
2022/06/05 06:19:50;;;;;;;8.05;7.25;;;20.20;99.90;;;;;;5089057;28;20236;-52
2022/06/05 06:22:18;;;;;;;8.30;7.47;;;20.20;99.90;;;;;;5088482;28;20209;-52
2022/06/05 06:24:47;;;;;;;8.70;7.43;;;20.30;99.90;;;;;;5088257;28;20285;-52
2022/06/05 06:27:16;;;;;;;8.32;7.63;;;20.30;99.90;;;;;;5088013;28;20239;-52
2022/06/05 06:29:44;;;;;;;8.20;7.43;;;20.40;99.90;;;;;;5087948;28;20208;-52
2022/06/05 06:32:12;;;;;;;8.20;7.50;;;20.40;99.90;;;;;;5086523;28;20305;-52
2022/06/05 06:34:40;;;;;;;7.63;6.93;;;20.50;99.90;;;;;;5086496;28;20801;-51
2022/06/05 06:37:09;;;;;;;9.82;8.93;;;20.40;99.90;;;;;;5085133;28;20247;-52
2022/06/05 06:39:37;;;;;;;8.20;7.25;;;20.40;99.90;;;;;;5086922;28;20200;-52
2022/06/05 06:42:05;;;;;;;8.93;8.05;;;20.40;99.90;;;;;;5086128;28;20283;-52
2022/06/05 06:44:33;;;;;;;9.27;8.48;;;20.40;99.90;;;;;;5083773;28;20255;-51
2022/06/05 06:47:01;;;;;;;8.07;7.35;;;20.50;99.90;;;;;;5084924;28;20325;-51
2022/06/05 06:49:30;;;;;;;9.02;8.25;;;20.60;99.90;;;;;;5087155;28;20247;-52
2022/06/05 06:51:59;;;;;;;8.10;7.40;;;20.70;99.90;;;;;;5087671;28;20297;-52
2022/06/05 06:54:28;;;;;;;8.15;7.55;;;20.70;99.90;;;;;;5088060;28;20290;-52
2022/06/05 06:56:56;;;;;;;8.73;7.97;;;20.90;99.90;;;;;;5087974;28;20754;-52
2022/06/05 06:59:24;;;;;;;8.57;7.80;;;20.90;99.90;;;;;;5087910;28;20265;-52
2022/06/05 07:01:52;;;;;;;8.52;7.80;;;20.90;99.90;;;;;;5084217;28;20204;-52
2022/06/05 07:04:21;;;;;;;9.02;8.18;;;20.90;99.90;;;;;;5085804;28;20224;-52
2022/06/05 07:06:49;;;;;;;9.10;8.30;;;20.90;99.90;;;;;;5088040;28;20212;-52
2022/06/05 07:09:17;;;;;;;9.13;8.30;;;21.00;99.90;;;;;;5088092;28;20204;-52
2022/06/05 07:11:47;;;;;;;9.18;8.25;;;21.00;99.90;;;;;;5087955;28;20484;-52
2022/06/05 07:14:16;;;;;;;10.02;7.88;;;21.00;99.90;;;;;;5087518;28;20787;-52
2022/06/05 07:16:44;;;;;;;9.45;8.43;;;21.10;99.90;;;;;;5088545;28;20257;-52
2022/06/05 07:19:12;;;;;;;8.63;7.72;;;21.10;99.90;;;;;;5088009;28;20675;-52
2022/06/05 07:21:40;;;;;;;8.18;7.57;;;21.20;99.90;;;;;;5088678;28;20497;-52
2022/06/05 07:24:09;;;;;;;8.90;8.15;;;21.30;99.90;;;;;;5082749;28;20286;-52
2022/06/05 07:26:37;;;;;;;8.45;7.78;;;21.50;99.90;;;;;;5087470;28;20281;-51
2022/06/05 07:29:06;;;;;;;8.60;7.80;;;21.80;99.90;;;;;;5088374;28;20239;-51
2022/06/05 07:31:40;;;;;;;17.77;7.88;;;22.00;99.90;;;;;;5087457;28;20250;-51
2022/06/05 07:34:09;;;;;;;8.48;7.50;;;22.30;99.90;;;;;;5087622;28;20678;-51
2022/06/05 07:36:38;;;;;;;8.00;7.30;;;22.60;99.90;;;;;;5088203;28;20219;-52
2022/06/05 07:39:06;;;;;;;7.63;6.93;;;23.00;99.90;;;;;;5087270;28;20254;-51
2022/06/05 07:41:37;;;;;;;12.18;7.53;;;23.30;99.90;;;;;;5088248;28;20204;-51
2022/06/05 07:44:07;;;;;;;7.63;6.93;;;23.40;99.90;;;;;;5087562;28;20227;-51
2022/06/05 07:46:36;;;;;;;8.07;7.30;;;23.80;99.90;;;;;;5087519;28;20598;-51
2022/06/05 07:49:05;;;;;;;7.80;7.10;;;23.90;99.90;;;;;;5094240;28;20548;-51
2022/06/05 07:54:34;;;;;;;7.07;6.57;;;24.30;99.90;;;;;;5093952;28;20263;-52
2022/06/05 07:57:05;;;;;;;7.30;6.70;;;24.20;99.90;;;;;;5091184;28;20236;-51
2022/06/05 07:59:37;;;;;;;8.15;7.45;;;24.30;99.90;;;;;;5090422;28;20740;-52
2022/06/05 08:02:08;;;;;;;8.02;7.20;;;24.40;99.90;;;;;;5085318;28;20599;-52
2022/06/05 08:04:37;;;;;;;8.13;7.22;;;24.20;99.90;;;;;;5089002;28;20284;-52
2022/06/05 08:07:07;;;;;;;7.72;6.95;;;23.80;99.90;;;;;;5086337;28;20658;-51
2022/06/05 08:09:36;;;;;;;7.35;6.72;;;23.60;99.90;;;;;;5090854;28;20239;-51
2022/06/05 08:12:04;;;;;;;8.07;7.32;;;23.50;99.90;;;;;;5091289;28;20238;-51
2022/06/05 08:14:35;;;;;;;7.78;7.03;;;23.30;99.90;;;;;;5090238;28;20239;-52
2022/06/05 08:17:06;;;;;;;7.57;6.88;;;23.30;99.90;;;;;;5091211;28;20204;-52
2022/06/05 08:19:38;;;;;;;7.80;7.18;;;23.00;99.90;;;;;;5091483;28;20232;-51
2022/06/05 08:22:07;;;;;;;8.15;7.35;;;23.10;99.90;;;;;;5090109;28;20258;-51
2022/06/05 08:24:36;;;;;;;8.15;7.38;;;22.90;99.90;;;;;;5091160;28;20278;-51
2022/06/05 08:27:11;;;;;;;8.52;7.72;;;22.90;99.90;;;;;;5091203;28;20220;-51
2022/06/05 08:29:39;;;;;;;7.97;7.25;;;22.80;99.90;;;;;;5094748;28;20215;-51
2022/06/05 08:32:09;;;;;;;8.00;7.25;;;22.80;99.90;;;;;;5091952;28;20231;-50
2022/06/05 08:34:38;;;;;;;8.95;7.43;;;22.80;99.90;;;;;;5089168;28;20220;-51
2022/06/05 08:43:02;;;;;;;7.90;7.20;;;22.60;99.90;;;;;;5074368;28;20602;-51
2022/06/05 08:45:35;;;;;;;8.48;7.78;;;22.50;99.90;;;;;;5082665;28;20285;-51
2022/06/05 08:48:11;;;;;;;8.43;7.70;;;22.50;99.90;;;;;;5080860;28;20209;-51
2022/06/05 08:50:45;;;;;;;8.85;8.05;;;22.50;99.90;;;;;;5083144;28;20245;-51
2022/06/05 08:53:23;;;;;;;8.95;8.13;;;22.50;99.90;;;;;;5089807;28;20268;-51
2022/06/05 08:55:54;;;;;;;9.43;8.52;;;22.50;99.90;;;;;;5096268;28;20996;-51
2022/06/05 08:58:29;;;;;;;8.50;7.70;;;22.60;99.90;;;;;;5077437;28;20254;-51
2022/06/05 09:01:00;;;;;;;9.18;8.18;;;22.80;99.90;;;;;;5076491;28;20250;-51
2022/06/05 09:03:36;;;;;;;8.15;7.55;;;22.90;99.90;;;;;;5084093;28;20204;-51
2022/06/05 09:06:10;;;;;;;8.70;7.97;;;22.90;99.90;;;;;;5081697;28;20607;-51
2022/06/05 09:08:41;;;;;;;8.23;7.43;;;22.80;99.90;;;;;;5078465;28;20674;-51
2022/06/05 09:11:15;;;;;;;10.15;7.65;;;22.90;99.90;;;;;;5079886;28;20192;-51
2022/06/05 09:13:49;;;;;;;8.45;7.65;;;23.00;99.90;;;;;;5079990;28;20243;-51
2022/06/05 09:16:23;;;;;;;7.97;7.22;;;23.10;99.90;;;;;;5087271;28;20753;-51
2022/06/05 09:18:53;;;;;;;7.97;7.18;;;23.20;99.90;;;;;;5090482;28;20643;-51
2022/06/05 09:21:26;;;;;;;7.82;7.13;;;23.20;99.90;;;;;;5090529;28;20227;-51
2022/06/05 09:24:04;;;;;;;8.02;7.40;;;23.30;99.90;;;;;;5085433;28;20261;-51
2022/06/05 09:26:42;;;;;;;7.43;6.70;;;23.20;99.90;;;;;;5089955;28;20812;-51
2022/06/05 09:29:30;;;;;;;7.68;6.97;;;23.20;99.90;;;;;;5086194;28;20248;-51
2022/06/05 09:32:30;;;;;;;7.95;7.25;;;23.30;99.90;;;;;;5087642;28;20709;-50
2022/06/05 09:35:05;;;;;;;7.03;6.43;;;23.30;99.90;;;;;;5089539;28;20476;-51
2022/06/05 09:37:39;;;;;;;8.02;7.22;;;23.40;99.90;;;;;;5089221;28;20638;-52
2022/06/05 09:40:16;;;;;;;6.68;5.95;;;23.50;99.90;;;;;;5089639;28;20237;-51
2022/06/05 09:43:08;;;;;;;7.03;6.50;;;23.60;99.90;;;;;;5089089;28;20208;-52
2022/06/05 09:45:49;;;;;;;7.50;6.80;;;23.60;99.90;;;;;;5086485;28;20220;-52
2022/06/05 09:48:27;;;;;;;7.25;6.65;;;23.60;99.90;;;;;;5089062;28;20204;-51
2022/06/05 09:51:07;;;;;;;6.85;6.25;;;23.60;99.90;;;;;;5085811;28;20203;-51
2022/06/05 09:53:42;;;;;;;6.80;6.20;;;23.60;99.90;;;;;;5073192;28;20293;-51
2022/06/05 09:56:20;;;;;;;9.05;6.32;;;23.60;99.90;;;;;;5086692;28;20208;-51
2022/06/05 09:59:03;;;;;;;6.22;5.72;;;23.70;99.90;;;;;;5088669;28;20208;-51
2022/06/05 10:01:34;;;;;;;5.47;5.07;;;23.80;99.90;;;;;;5088553;28;20204;-52
2022/06/05 10:04:06;;;;;;;6.38;5.78;;;23.80;99.90;;;;;;5087961;28;20303;-50
2022/06/05 10:06:40;;;;;;;6.43;5.82;;;23.90;99.90;;;;;;5088770;28;20261;-51
2022/06/05 10:09:13;;;;;;;6.30;5.70;;;23.90;99.90;;;;;;5086925;28;20246;-51
2022/06/05 10:11:50;;;;;;;5.97;5.43;;;23.80;99.90;;;;;;5085403;28;20232;-51
2022/06/05 10:14:37;;;;;;;5.53;5.13;;;23.70;99.90;;;;;;5086495;28;20224;-52
2022/06/05 10:17:22;;;;;;;6.07;5.50;;;23.60;99.90;;;;;;5088991;28;20216;-51
2022/06/05 10:20:06;;;;;;;6.22;5.72;;;23.50;99.90;;;;;;5088534;28;20212;-51
2022/06/05 10:22:43;;;;;;;7.03;6.15;;;23.50;99.90;;;;;;5087531;28;20250;-51
2022/06/05 10:25:28;;;;;;;6.03;5.50;;;23.50;99.90;;;;;;5082704;28;20635;-51
2022/06/05 10:28:00;;;;;;;5.95;5.45;;;23.40;99.90;;;;;;5089024;28;20200;-51
2022/06/05 10:30:33;;;;;;;6.50;5.88;;;23.40;99.90;;;;;;5089121;28;20262;-51
2022/06/05 10:33:06;;;;;;;5.88;5.40;;;23.40;99.90;;;;;;5088701;28;20227;-51
2022/06/05 10:35:45;;;;;;;6.25;5.75;;;23.30;99.90;;;;;;5088389;28;20274;-51
2022/06/05 10:38:31;;;;;;;6.18;5.60;;;23.20;99.90;;;;;;5088005;28;20208;-51
2022/06/05 10:41:05;;;;;;;6.45;5.95;;;23.20;99.90;;;;;;5089393;28;20201;-51
2022/06/05 10:43:34;;;;;;;7.00;6.40;;;23.10;99.90;;;;;;5087883;28;20200;-51
2022/06/05 10:46:05;;;;;;;7.40;6.70;;;23.10;99.90;;;;;;5089168;28;20204;-51
2022/06/05 10:48:50;;;;;;;7.43;6.82;;;23.00;99.90;;;;;;5088245;28;20686;-51
2022/06/05 10:51:28;;;;;;;6.65;6.15;;;23.00;99.90;;;;;;5088859;28;20212;-51
2022/06/05 10:54:03;;;;;;;8.15;6.05;;;23.00;99.90;;;;;;5082725;28;20311;-51
2022/06/05 10:56:41;;;;;;;6.97;6.45;;;22.90;99.90;;;;;;5088536;28;20204;-51
2022/06/05 10:59:18;;;;;;;6.90;6.25;;;22.80;99.90;;;;;;5081351;28;20304;-51
2022/06/05 11:02:05;;;;;;;6.93;6.30;;;22.70;99.90;;;;;;5085987;28;20869;-50
2022/06/05 11:04:48;;;;;;;7.30;6.60;;;22.60;99.90;;;;;;5087950;28;20224;-52
2022/06/05 11:07:36;;;;;;;7.72;6.90;;;22.50;99.90;;;;;;5086401;28;20216;-51
2022/06/05 11:10:18;;;;;;;7.35;6.68;;;22.40;99.90;;;;;;5085524;28;20227;-51
2022/06/05 11:15:54;;;;;;;6.68;6.15;;;22.40;99.90;;;;;;5084972;28;20217;-51
2022/06/05 11:18:30;;;;;;;6.85;6.35;;;22.40;99.90;;;;;;5086606;28;20214;-51
2022/06/05 11:21:01;;;;;;;7.05;6.45;;;22.50;99.90;;;;;;5089263;28;20867;-50
2022/06/05 11:23:34;;;;;;;6.53;6.03;;;22.50;99.90;;;;;;5089297;28;20200;-51
2022/06/05 11:26:13;;;;;;;6.43;5.90;;;22.50;99.90;;;;;;5092057;28;20634;-51
2022/06/05 11:28:57;;;;;;;6.38;5.88;;;22.50;99.90;;;;;;5093251;28;20253;-50
2022/06/05 11:31:39;;;;;;;7.03;6.43;;;22.40;99.90;;;;;;5092590;28;20204;-51
2022/06/05 11:34:23;;;;;;;6.78;6.10;;;22.30;99.90;;;;;;5085338;28;20315;-52
2022/06/05 11:36:53;;;;;;;6.85;6.25;;;22.30;99.90;;;;;;5091465;28;20220;-51
2022/06/05 11:39:31;;;;;;;7.00;6.50;;;22.40;99.90;;;;;;5089305;28;20738;-51
2022/06/05 11:42:14;;;;;;;6.97;6.47;;;22.30;99.90;;;;;;5089466;28;20257;-52
2022/06/05 11:44:49;;;;;;;7.03;6.43;;;22.40;99.90;;;;;;5089610;28;20305;-51
2022/06/05 11:47:33;;;;;;;7.22;6.70;;;22.40;99.90;;;;;;5088468;28;20196;-50
2022/06/05 11:50:11;;;;;;;6.68;6.07;;;22.40;99.90;;;;;;5089939;28;20240;-51
2022/06/05 11:52:45;;;;;;;7.70;7.05;;;22.40;99.90;;;;;;5090246;28;20245;-51
2022/06/05 11:55:26;;;;;;;7.95;7.20;;;22.40;99.90;;;;;;5092081;28;20595;-51
2022/06/05 11:58:05;;;;;;;7.43;6.57;;;22.50;99.90;;;;;;5086633;28;20235;-50
2022/06/05 12:00:37;;;;;;;7.55;6.95;;;22.40;99.90;;;;;;5091398;28;20688;-51
2022/06/05 12:03:15;;;;;;;7.30;6.70;;;22.50;99.90;;;;;;5091324;28;20665;-50
2022/06/05 12:05:51;;;;;;;9.00;7.65;;;22.50;99.90;;;;;;5091506;28;20683;-51
2022/06/05 12:08:24;;;;;;;9.23;7.07;;;22.50;99.90;;;;;;5091809;28;20212;-50
2022/06/05 12:10:58;;;;;;;7.97;7.30;;;22.40;99.90;;;;;;5091830;28;20953;-51
2022/06/05 12:13:58;;;;;;;7.80;7.20;;;22.40;99.90;;;;;;5091765;28;20285;-51
2022/06/05 12:16:37;;;;;;;8.35;7.47;;;22.40;99.90;;;;;;5081403;28;20216;-51
2022/06/05 12:19:15;;;;;;;8.40;6.78;;;22.60;99.90;;;;;;5090567;28;20312;-51
2022/06/05 12:21:55;;;;;;;7.85;7.18;;;22.70;99.90;;;;;;5081212;28;20615;-51
2022/06/05 12:24:27;;;;;;;8.10;7.40;;;22.80;99.90;;;;;;5091060;28;20299;-52
2022/06/05 12:27:01;;;;;;;8.07;7.35;;;23.20;99.90;;;;;;5093406;28;20348;-51
2022/06/05 12:29:34;;;;;;;7.97;7.28;;;23.50;99.90;;;;;;5088009;28;20243;-51
2022/06/05 12:32:09;;;;;;;8.00;7.30;;;23.80;99.90;;;;;;5087436;28;20230;-51
2022/06/05 12:34:41;;;;;;;8.68;7.88;;;24.00;99.90;;;;;;5089687;28;20231;-51
2022/06/05 12:37:18;;;;;;;7.88;7.18;;;24.00;99.90;;;;;;5092979;28;20257;-51
2022/06/05 12:39:49;;;;;;;7.93;7.05;;;23.90;99.90;;;;;;5091114;28;20293;-51
2022/06/05 12:42:34;;;;;;;7.50;6.90;;;24.10;99.90;;;;;;5091191;28;20235;-51
2022/06/05 12:45:19;;;;;;;8.32;7.13;;;24.10;99.90;;;;;;5087369;28;20297;-51
2022/06/05 12:47:59;;;;;;;7.70;7.00;;;24.10;99.90;;;;;;5092388;28;20626;-51
2022/06/05 12:50:40;;;;;;;7.25;6.65;;;24.10;99.90;;;;;;5090574;28;20341;-51
2022/06/05 12:53:17;;;;;;;7.97;7.28;;;24.20;99.90;;;;;;5084160;28;20760;-51
2022/06/05 12:55:54;;;;;;;8.15;7.35;;;24.10;99.90;;;;;;5090143;28;20274;-51
2022/06/05 12:58:31;;;;;;;8.07;7.28;;;24.00;99.90;;;;;;5091353;28;20236;-51
2022/06/05 13:01:03;;;;;;;7.57;6.88;;;24.10;99.90;;;;;;5090302;28;20235;-51
2022/06/05 13:03:39;;;;;;;7.72;7.13;;;24.00;99.90;;;;;;5090253;28;20246;-52
2022/06/05 13:06:13;;;;;;;8.63;7.85;;;23.90;99.90;;;;;;5089710;28;20243;-51
2022/06/05 13:08:47;;;;;;;7.63;7.03;;;23.80;99.90;;;;;;5089841;28;20252;-51
2022/06/05 13:11:23;;;;;;;7.70;7.10;;;23.70;99.90;;;;;;5089793;28;20921;-51
2022/06/05 13:13:58;;;;;;;7.95;7.25;;;23.70;99.90;;;;;;5088802;28;20273;-51
2022/06/05 13:16:36;;;;;;;7.65;6.93;;;23.60;99.90;;;;;;5088593;28;20200;-51
2022/06/05 13:19:29;;;;;;;7.60;6.93;;;23.50;99.90;;;;;;5089926;28;20728;-51
2022/06/05 13:22:09;;;;;;;8.02;7.32;;;23.50;99.90;;;;;;5087069;28;20223;-51
2022/06/05 13:24:46;;;;;;;7.97;7.38;;;23.60;99.90;;;;;;5081580;28;20297;-51
2022/06/05 13:27:26;;;;;;;8.02;7.30;;;23.60;99.90;;;;;;5083794;28;20203;-51
2022/06/05 13:30:06;;;;;;;8.05;7.35;;;23.50;99.90;;;;;;5089134;28;20207;-51
2022/06/05 13:32:47;;;;;;;8.05;7.28;;;23.50;99.90;;;;;;5089721;28;20204;-51